createdAt,value
2017-10-22T00:00:31.460Z,15.45
2017-10-22T00:01:37.221Z,15.48
2017-10-22T00:02:44.281Z,15.50
2017-10-22T00:03:50.036Z,15.54
2017-10-22T00:04:56.557Z,15.49
2017-10-22T00:06:02.350Z,15.52
2017-10-22T00:07:07.905Z,15.47
2017-10-22T00:08:13.665Z,15.40
2017-10-22T00:09:19.424Z,15.44
2017-10-22T00:10:25.169Z,15.37
2017-10-22T00:11:30.944Z,15.28
2017-10-22T00:12:36.715Z,15.28
2017-10-22T00:13:42.468Z,15.27
2017-10-22T00:14:48.216Z,15.33
2017-10-22T00:15:53.973Z,15.34
2017-10-22T00:16:59.759Z,15.41
2017-10-22T00:18:05.526Z,15.32
2017-10-22T00:19:11.281Z,15.29
2017-10-22T00:20:17.036Z,15.29
2017-10-22T00:21:22.784Z,15.28
2017-10-22T00:22:28.580Z,15.28
2017-10-22T00:23:35.088Z,15.31
2017-10-22T00:24:40.841Z,15.25
2017-10-22T00:25:46.607Z,15.27
2017-10-22T00:26:52.359Z,15.25
2017-10-22T00:27:58.896Z,15.19
2017-10-22T00:29:04.657Z,15.19
2017-10-22T00:30:11.001Z,15.20
2017-10-22T00:31:16.468Z,15.20
2017-10-22T00:32:22.597Z,15.20
2017-10-22T00:33:29.169Z,15.22
2017-10-22T00:34:35.694Z,15.23
2017-10-22T00:35:42.235Z,15.23
2017-10-22T00:36:48.001Z,15.22
2017-10-22T00:37:53.761Z,15.16
2017-10-22T00:39:00.356Z,15.23
2017-10-22T00:40:06.114Z,15.26
2017-10-22T00:41:11.858Z,15.18
2017-10-22T00:42:17.660Z,15.26
2017-10-22T00:43:24.189Z,15.25
2017-10-22T00:44:29.618Z,15.11
2017-10-22T00:45:35.793Z,15.08
2017-10-22T00:46:42.368Z,15.03
2017-10-22T00:47:48.921Z,15.05
2017-10-22T00:48:55.437Z,14.95
2017-10-22T00:50:01.218Z,14.92
2017-10-22T00:51:07.754Z,14.88
2017-10-22T00:52:15.005Z,14.90
2017-10-22T00:53:20.757Z,14.92
2017-10-22T00:54:26.521Z,14.91
2017-10-22T00:55:32.297Z,14.89
2017-10-22T00:56:37.711Z,14.91
2017-10-22T00:57:43.887Z,14.95
2017-10-22T00:58:49.638Z,15.01
2017-10-22T00:59:55.404Z,15.06
2017-10-22T01:01:01.553Z,15.06
2017-10-22T01:02:07.292Z,15.05
2017-10-22T01:03:13.029Z,15.08
2017-10-22T01:04:18.796Z,15.09
2017-10-22T01:05:24.544Z,15.05
2017-10-22T01:06:30.336Z,15.05
2017-10-22T01:07:36.084Z,14.98
2017-10-22T01:08:41.834Z,15.01
2017-10-22T01:09:47.361Z,15.02
2017-10-22T01:10:52.887Z,15.05
2017-10-22T01:11:59.012Z,15.10
2017-10-22T01:13:04.868Z,15.05
2017-10-22T01:14:09.937Z,15.06
2017-10-22T01:15:15.340Z,15.09
2017-10-22T01:16:21.101Z,15.12
2017-10-22T01:17:26.906Z,15.14
2017-10-22T01:18:33.424Z,15.12
2017-10-22T01:19:38.841Z,15.10
2017-10-22T01:20:44.249Z,15.09
2017-10-22T01:21:49.312Z,15.04
2017-10-22T01:22:54.758Z,15.01
2017-10-22T01:24:00.242Z,15.01
2017-10-22T01:25:05.305Z,15.03
2017-10-22T01:26:10.355Z,15.06
2017-10-22T01:27:16.532Z,15.07
2017-10-22T01:28:21.980Z,15.09
2017-10-22T01:29:27.397Z,15.07
2017-10-22T01:30:33.152Z,15.10
2017-10-22T01:31:38.376Z,15.09
2017-10-22T01:32:43.437Z,15.13
2017-10-22T01:33:49.221Z,15.03
2017-10-22T01:34:55.064Z,15.09
2017-10-22T01:36:00.896Z,15.04
2017-10-22T01:37:06.309Z,15.04
2017-10-22T01:38:11.718Z,14.97
2017-10-22T01:39:17.160Z,14.93
2017-10-22T01:40:22.605Z,14.93
2017-10-22T01:41:27.464Z,14.91
2017-10-22T01:42:33.293Z,14.89
2017-10-22T01:43:39.060Z,14.87
2017-10-22T01:44:44.522Z,14.74
2017-10-22T01:45:49.930Z,14.80
2017-10-22T01:46:56.075Z,14.76
2017-10-22T01:48:01.889Z,14.73
2017-10-22T01:49:08.453Z,14.71
2017-10-22T01:50:13.917Z,14.79
2017-10-22T01:51:19.669Z,14.76
2017-10-22T01:52:25.078Z,14.76
2017-10-22T01:53:30.900Z,14.76
2017-10-22T01:54:36.342Z,14.74
2017-10-22T01:55:42.566Z,14.72
2017-10-22T01:56:48.035Z,14.67
2017-10-22T01:57:53.689Z,14.62
2017-10-22T01:58:59.860Z,14.68
2017-10-22T02:00:05.273Z,14.74
2017-10-22T02:01:11.822Z,14.68
2017-10-22T02:02:18.371Z,14.69
2017-10-22T02:03:24.124Z,14.76
2017-10-22T02:04:30.304Z,14.67
2017-10-22T02:05:35.726Z,14.68
2017-10-22T02:06:42.306Z,14.61
2017-10-22T02:07:47.717Z,14.55
2017-10-22T02:08:53.542Z,14.60
2017-10-22T02:09:59.730Z,14.63
2017-10-22T02:11:04.786Z,14.54
2017-10-22T02:12:09.869Z,14.49
2017-10-22T02:13:15.641Z,14.44
2017-10-22T02:14:21.731Z,14.45
2017-10-22T02:15:27.140Z,14.43
2017-10-22T02:16:32.898Z,14.42
2017-10-22T02:17:39.244Z,14.37
2017-10-22T02:18:45.764Z,14.35
2017-10-22T02:19:51.516Z,14.32
2017-10-22T02:20:56.580Z,14.31
2017-10-22T02:22:03.838Z,14.27
2017-10-22T02:23:09.945Z,14.17
2017-10-22T02:24:15.693Z,14.18
2017-10-22T02:25:21.120Z,14.19
2017-10-22T02:26:27.120Z,14.17
2017-10-22T02:27:32.860Z,14.19
2017-10-22T02:28:38.632Z,14.17
2017-10-22T02:29:45.154Z,14.16
2017-10-22T02:30:50.911Z,14.16
2017-10-22T02:31:56.473Z,14.12
2017-10-22T02:33:02.998Z,14.09
2017-10-22T02:34:08.781Z,14.04
2017-10-22T02:35:14.529Z,14.01
2017-10-22T02:36:19.933Z,13.97
2017-10-22T02:37:25.682Z,13.97
2017-10-22T02:38:31.865Z,14.02
2017-10-22T02:39:37.640Z,13.97
2017-10-22T02:40:43.398Z,13.94
2017-10-22T02:41:49.283Z,13.98
2017-10-22T02:42:56.461Z,14.03
2017-10-22T02:44:02.224Z,14.04
2017-10-22T02:45:08.003Z,14.03
2017-10-22T02:46:14.525Z,14.01
2017-10-22T02:47:20.284Z,14.03
2017-10-22T02:48:26.055Z,14.02
2017-10-22T02:49:31.875Z,13.94
2017-10-22T02:50:37.652Z,13.94
2017-10-22T02:51:43.832Z,13.85
2017-10-22T02:52:49.600Z,13.91
2017-10-22T02:53:55.357Z,13.91
2017-10-22T02:55:01.102Z,13.88
2017-10-22T02:56:06.906Z,13.89
2017-10-22T02:57:12.672Z,13.78
2017-10-22T02:58:18.472Z,13.74
2017-10-22T02:59:23.891Z,13.73
2017-10-22T03:00:30.074Z,13.78
2017-10-22T03:01:35.846Z,13.86
2017-10-22T03:02:41.590Z,13.84
2017-10-22T03:03:47.348Z,13.93
2017-10-22T03:04:53.100Z,13.93
2017-10-22T03:05:58.940Z,13.91
2017-10-22T03:07:05.150Z,13.95
2017-10-22T03:08:10.899Z,14.01
2017-10-22T03:09:16.665Z,13.96
2017-10-22T03:10:22.412Z,14.01
2017-10-22T03:11:28.156Z,14.00
2017-10-22T03:12:34.704Z,14.06
2017-10-22T03:13:42.223Z,14.04
2017-10-22T03:14:47.962Z,13.99
2017-10-22T03:15:53.715Z,14.03
2017-10-22T03:16:59.490Z,13.98
2017-10-22T03:18:04.919Z,13.97
2017-10-22T03:19:10.686Z,13.97
2017-10-22T03:20:16.466Z,13.92
2017-10-22T03:21:22.992Z,13.90
2017-10-22T03:22:28.737Z,13.85
2017-10-22T03:23:34.508Z,13.85
2017-10-22T03:24:40.334Z,13.83
2017-10-22T03:25:46.848Z,13.86
2017-10-22T03:26:52.637Z,13.84
2017-10-22T03:27:59.160Z,13.81
2017-10-22T03:29:04.948Z,13.80
2017-10-22T03:30:10.715Z,13.80
2017-10-22T03:31:16.469Z,13.73
2017-10-22T03:32:22.233Z,13.72
2017-10-22T03:33:27.996Z,13.73
2017-10-22T03:34:33.769Z,13.69
2017-10-22T03:35:39.523Z,13.69
2017-10-22T03:36:45.263Z,13.66
2017-10-22T03:37:51.012Z,13.64
2017-10-22T03:38:56.758Z,13.59
2017-10-22T03:40:02.533Z,13.57
2017-10-22T03:41:08.281Z,13.58
2017-10-22T03:42:14.807Z,13.60
2017-10-22T03:43:20.561Z,13.57
2017-10-22T03:44:26.313Z,13.55
2017-10-22T03:45:32.101Z,13.52
2017-10-22T03:46:37.844Z,13.52
2017-10-22T03:47:43.606Z,13.45
2017-10-22T03:48:49.345Z,13.48
2017-10-22T03:49:55.096Z,13.47
2017-10-22T03:51:00.896Z,13.42
2017-10-22T03:52:07.406Z,13.38
2017-10-22T03:53:13.156Z,13.38
2017-10-22T03:54:19.076Z,13.32
2017-10-22T03:55:24.825Z,13.34
2017-10-22T03:56:30.594Z,13.34
2017-10-22T03:57:37.852Z,13.28
2017-10-22T03:58:43.602Z,13.27
2017-10-22T03:59:49.392Z,13.23
2017-10-22T04:00:55.896Z,13.21
2017-10-22T04:02:01.678Z,13.22
2017-10-22T04:03:08.188Z,13.25
2017-10-22T04:04:13.942Z,13.24
2017-10-22T04:05:19.694Z,13.28
2017-10-22T04:06:25.443Z,13.32
2017-10-22T04:07:31.222Z,13.30
2017-10-22T04:08:36.972Z,13.29
2017-10-22T04:09:42.725Z,13.31
2017-10-22T04:10:48.483Z,13.35
2017-10-22T04:11:54.232Z,13.35
2017-10-22T04:13:00.330Z,13.36
2017-10-22T04:14:06.093Z,13.38
2017-10-22T04:15:11.852Z,13.38
2017-10-22T04:16:17.617Z,13.38
2017-10-22T04:17:23.363Z,13.39
2017-10-22T04:18:29.138Z,13.33
2017-10-22T04:19:34.881Z,13.30
2017-10-22T04:20:40.640Z,13.24
2017-10-22T04:21:46.397Z,13.26
2017-10-22T04:22:52.232Z,13.27
2017-10-22T04:23:58.013Z,13.24
2017-10-22T04:25:03.764Z,13.26
2017-10-22T04:26:09.941Z,13.36
2017-10-22T04:27:15.707Z,13.25
2017-10-22T04:28:22.481Z,13.25
2017-10-22T04:29:28.259Z,13.24
2017-10-22T04:30:34.798Z,13.29
2017-10-22T04:31:40.541Z,13.28
2017-10-22T04:32:46.308Z,13.29
2017-10-22T04:33:52.831Z,13.36
2017-10-22T04:34:58.600Z,13.34
2017-10-22T04:36:05.167Z,13.26
2017-10-22T04:37:10.984Z,13.18
2017-10-22T04:38:16.746Z,13.15
2017-10-22T04:39:22.488Z,13.16
2017-10-22T04:40:28.273Z,13.15
2017-10-22T04:41:34.029Z,13.11
2017-10-22T04:42:39.778Z,13.12
2017-10-22T04:43:45.520Z,13.03
2017-10-22T04:44:51.272Z,13.03
2017-10-22T04:45:57.075Z,13.08
2017-10-22T04:47:02.837Z,13.00
2017-10-22T04:48:08.585Z,13.00
2017-10-22T04:49:14.340Z,12.95
2017-10-22T04:50:20.092Z,12.92
2017-10-22T04:51:25.856Z,12.89
2017-10-22T04:52:32.444Z,12.83
2017-10-22T04:53:38.188Z,12.81
2017-10-22T04:54:44.010Z,12.78
2017-10-22T04:55:50.526Z,12.77
2017-10-22T04:56:56.309Z,12.76
2017-10-22T04:58:02.819Z,12.74
2017-10-22T04:59:08.653Z,12.68
2017-10-22T05:00:14.467Z,12.68
2017-10-22T05:01:20.982Z,12.61
2017-10-22T05:02:26.752Z,12.61
2017-10-22T05:03:33.272Z,12.61
2017-10-22T05:04:39.052Z,12.56
2017-10-22T05:05:45.560Z,12.51
2017-10-22T05:06:51.301Z,12.47
2017-10-22T05:07:57.076Z,12.41
2017-10-22T05:09:05.731Z,12.40
2017-10-22T05:10:11.470Z,12.40
2017-10-22T05:11:17.209Z,12.41
2017-10-22T05:12:23.014Z,12.31
2017-10-22T05:13:28.862Z,12.37
2017-10-22T05:14:34.600Z,12.35
2017-10-22T05:15:40.352Z,12.33
2017-10-22T05:16:46.859Z,12.33
2017-10-22T05:17:52.602Z,12.29
2017-10-22T05:18:58.364Z,12.28
2017-10-22T05:20:04.104Z,12.26
2017-10-22T05:21:09.856Z,12.25
2017-10-22T05:22:15.596Z,12.27
2017-10-22T05:23:21.353Z,12.25
2017-10-22T05:24:27.125Z,12.22
2017-10-22T05:25:32.868Z,12.23
2017-10-22T05:26:39.024Z,12.21
2017-10-22T05:27:44.765Z,12.17
2017-10-22T05:28:50.320Z,12.19
2017-10-22T05:29:56.095Z,12.19
2017-10-22T05:31:01.833Z,12.22
2017-10-22T05:32:07.576Z,12.23
2017-10-22T05:33:14.092Z,12.18
2017-10-22T05:34:19.836Z,12.18
2017-10-22T05:35:25.618Z,12.12
2017-10-22T05:36:31.410Z,12.17
2017-10-22T05:37:37.148Z,12.17
2017-10-22T05:38:42.893Z,12.17
2017-10-22T05:39:48.635Z,12.18
2017-10-22T05:40:54.417Z,12.15
2017-10-22T05:42:00.166Z,12.15
2017-10-22T05:43:05.904Z,12.13
2017-10-22T05:44:11.646Z,12.14
2017-10-22T05:45:17.137Z,12.11
2017-10-22T05:46:22.909Z,12.08
2017-10-22T05:47:28.720Z,12.09
2017-10-22T05:48:34.461Z,12.08
2017-10-22T05:49:40.221Z,12.06
2017-10-22T05:50:45.968Z,12.06
2017-10-22T05:51:51.732Z,12.02
2017-10-22T05:52:57.476Z,12.00
2017-10-22T05:54:03.229Z,12.01
2017-10-22T05:55:08.966Z,12.00
2017-10-22T05:56:14.734Z,12.00
2017-10-22T05:57:20.748Z,11.99
2017-10-22T05:58:26.497Z,12.00
2017-10-22T05:59:32.461Z,11.98
2017-10-22T06:00:39.484Z,11.95
2017-10-22T06:01:45.240Z,11.96
2017-10-22T06:02:51.000Z,11.98
2017-10-22T06:03:56.754Z,11.97
2017-10-22T06:05:02.493Z,11.97
2017-10-22T06:06:09.046Z,11.96
2017-10-22T06:07:14.324Z,11.98
2017-10-22T06:08:20.092Z,11.99
2017-10-22T06:09:26.319Z,12.00
2017-10-22T06:10:32.061Z,12.01
2017-10-22T06:11:37.865Z,12.00
2017-10-22T06:12:44.386Z,11.99
2017-10-22T06:13:50.162Z,12.01
2017-10-22T06:14:55.996Z,12.01
2017-10-22T06:16:02.537Z,12.05
2017-10-22T06:17:08.278Z,12.03
2017-10-22T06:18:14.030Z,12.04
2017-10-22T06:19:21.320Z,12.05
2017-10-22T06:20:27.836Z,12.07
2017-10-22T06:21:33.705Z,12.10
2017-10-22T06:22:39.451Z,12.14
2017-10-22T06:23:45.188Z,12.18
2017-10-22T06:24:50.964Z,12.20
2017-10-22T06:25:57.483Z,12.26
2017-10-22T06:27:03.226Z,12.27
2017-10-22T06:28:08.977Z,12.33
2017-10-22T06:29:14.717Z,12.32
2017-10-22T06:30:20.521Z,12.37
2017-10-22T06:31:26.266Z,12.38
2017-10-22T06:32:32.025Z,12.44
2017-10-22T06:33:37.785Z,12.44
2017-10-22T06:34:43.193Z,12.47
2017-10-22T06:35:48.978Z,12.49
2017-10-22T06:36:54.384Z,12.52
2017-10-22T06:38:00.142Z,12.52
2017-10-22T06:39:05.695Z,12.55
2017-10-22T06:40:10.829Z,12.59
2017-10-22T06:41:17.206Z,12.55
2017-10-22T06:42:22.724Z,12.53
2017-10-22T06:43:28.884Z,12.46
2017-10-22T06:44:34.661Z,12.48
2017-10-22T06:45:40.089Z,12.47
2017-10-22T06:46:45.865Z,12.54
2017-10-22T06:47:51.096Z,12.52
2017-10-22T06:48:56.505Z,12.48
2017-10-22T06:50:02.242Z,12.41
2017-10-22T06:51:07.674Z,12.41
2017-10-22T06:52:13.440Z,12.42
2017-10-22T06:53:19.186Z,12.44
2017-10-22T06:54:24.398Z,12.43
2017-10-22T06:55:29.628Z,12.47
2017-10-22T06:56:34.746Z,12.44
2017-10-22T06:57:40.208Z,12.47
2017-10-22T06:58:45.629Z,12.53
2017-10-22T06:59:50.905Z,12.44
2017-10-22T07:00:57.432Z,12.48
2017-10-22T07:02:02.526Z,12.47
2017-10-22T07:03:07.980Z,12.50
2017-10-22T07:04:13.388Z,12.54
2017-10-22T07:05:18.799Z,12.51
2017-10-22T07:06:24.542Z,12.51
2017-10-22T07:07:30.325Z,12.58
2017-10-22T07:08:36.148Z,12.55
2017-10-22T07:09:41.552Z,12.58
2017-10-22T07:10:47.328Z,12.62
2017-10-22T07:11:53.136Z,12.62
2017-10-22T07:12:58.903Z,12.64
2017-10-22T07:14:04.345Z,12.66
2017-10-22T07:15:09.405Z,12.67
2017-10-22T07:16:15.181Z,12.69
2017-10-22T07:17:20.954Z,12.66
2017-10-22T07:18:26.698Z,12.67
2017-10-22T07:19:32.502Z,12.65
2017-10-22T07:20:39.028Z,12.67
2017-10-22T07:21:44.772Z,12.64
2017-10-22T07:22:51.335Z,12.66
2017-10-22T07:23:57.108Z,12.63
2017-10-22T07:25:02.889Z,12.60
2017-10-22T07:26:08.636Z,12.62
2017-10-22T07:27:14.378Z,12.61
2017-10-22T07:28:21.038Z,12.68
2017-10-22T07:29:26.788Z,12.68
2017-10-22T07:30:32.561Z,12.71
2017-10-22T07:31:39.073Z,12.76
2017-10-22T07:32:44.817Z,12.78
2017-10-22T07:33:50.796Z,12.84
2017-10-22T07:34:57.346Z,12.86
2017-10-22T07:36:03.638Z,12.93
2017-10-22T07:37:09.384Z,12.95
2017-10-22T07:38:14.793Z,13.01
2017-10-22T07:39:21.313Z,13.10
2017-10-22T07:40:27.065Z,13.21
2017-10-22T07:41:32.940Z,13.26
2017-10-22T07:42:39.766Z,13.35
2017-10-22T07:43:45.174Z,13.54
2017-10-22T07:44:51.412Z,13.66
2017-10-22T07:45:57.164Z,13.87
2017-10-22T07:47:03.981Z,14.21
2017-10-22T07:48:10.497Z,14.60
2017-10-22T07:49:23.458Z,15.05
2017-10-22T07:50:30.212Z,15.57
2017-10-22T07:51:35.962Z,16.02
2017-10-22T07:52:41.927Z,16.48
2017-10-22T07:53:48.444Z,16.93
2017-10-22T07:54:54.228Z,17.33
2017-10-22T07:55:59.992Z,17.69
2017-10-22T07:57:05.745Z,17.94
2017-10-22T07:58:11.518Z,18.25
2017-10-22T07:59:17.516Z,18.68
2017-10-22T08:00:23.301Z,18.99
2017-10-22T08:01:29.108Z,19.18
2017-10-22T08:02:35.049Z,19.04
2017-10-22T08:03:40.837Z,19.11
2017-10-22T08:04:46.655Z,19.30
2017-10-22T08:05:52.411Z,19.47
2017-10-22T08:06:58.173Z,19.65
2017-10-22T08:08:04.058Z,19.85
2017-10-22T08:09:09.909Z,20.03
2017-10-22T08:10:15.911Z,20.10
2017-10-22T08:11:22.801Z,20.09
2017-10-22T08:12:29.363Z,20.22
2017-10-22T08:13:35.196Z,20.16
2017-10-22T08:14:41.632Z,20.33
2017-10-22T08:15:47.259Z,20.32
2017-10-22T08:16:52.921Z,20.42
2017-10-22T08:17:59.618Z,20.68
2017-10-22T08:19:05.554Z,21.15
2017-10-22T08:20:12.257Z,21.18
2017-10-22T08:21:20.063Z,21.12
2017-10-22T08:22:25.916Z,20.93
2017-10-22T08:23:31.670Z,21.06
2017-10-22T08:24:38.354Z,21.14
2017-10-22T08:25:44.344Z,21.49
2017-10-22T08:26:50.113Z,21.58
2017-10-22T08:27:57.422Z,21.43
2017-10-22T08:29:03.358Z,21.35
2017-10-22T08:30:09.148Z,21.50
2017-10-22T08:31:14.917Z,21.65
2017-10-22T08:32:20.729Z,21.73
2017-10-22T08:33:26.465Z,21.79
2017-10-22T08:34:32.108Z,21.70
2017-10-22T08:35:37.857Z,21.87
2017-10-22T08:36:43.626Z,21.44
2017-10-22T08:37:49.376Z,21.47
2017-10-22T08:38:55.890Z,21.43
2017-10-22T08:40:01.698Z,21.52
2017-10-22T08:41:08.196Z,21.46
2017-10-22T08:42:13.964Z,21.50
2017-10-22T08:43:19.713Z,21.69
2017-10-22T08:44:24.786Z,21.75
2017-10-22T08:45:29.998Z,21.80
2017-10-22T08:46:35.079Z,21.29
2017-10-22T08:47:41.002Z,21.09
2017-10-22T08:48:46.101Z,21.48
2017-10-22T08:49:51.524Z,21.16
2017-10-22T08:50:57.276Z,21.23
2017-10-22T08:52:03.019Z,21.23
2017-10-22T08:53:08.545Z,21.11
2017-10-22T08:54:15.720Z,20.28
2017-10-22T08:55:21.496Z,20.20
2017-10-22T08:56:26.905Z,20.33
2017-10-22T08:57:32.793Z,20.44
2017-10-22T08:58:38.711Z,20.54
2017-10-22T08:59:44.732Z,20.40
2017-10-22T09:00:49.917Z,20.02
2017-10-22T09:01:56.524Z,20.08
2017-10-22T09:03:02.264Z,20.29
2017-10-22T09:04:08.244Z,20.26
2017-10-22T09:05:13.960Z,20.68
2017-10-22T09:06:19.817Z,20.32
2017-10-22T09:07:25.402Z,19.89
2017-10-22T09:08:30.905Z,19.52
2017-10-22T09:09:36.878Z,19.47
2017-10-22T09:10:42.729Z,18.90
2017-10-22T09:11:47.845Z,18.71
2017-10-22T09:12:53.780Z,18.61
2017-10-22T09:13:59.188Z,18.86
2017-10-22T09:15:04.647Z,18.70
2017-10-22T09:16:10.679Z,18.65
2017-10-22T09:17:16.073Z,18.68
2017-10-22T09:18:22.217Z,18.72
2017-10-22T09:19:29.296Z,18.64
2017-10-22T09:20:35.237Z,18.56
2017-10-22T09:21:41.609Z,18.56
2017-10-22T09:22:47.384Z,18.35
2017-10-22T09:23:52.965Z,18.18
2017-10-22T09:24:59.571Z,17.86
2017-10-22T09:26:05.490Z,17.56
2017-10-22T09:27:11.433Z,17.42
2017-10-22T09:28:16.897Z,17.29
2017-10-22T09:29:23.427Z,17.43
2017-10-22T09:30:29.452Z,17.57
2017-10-22T09:31:35.289Z,17.45
2017-10-22T09:32:40.814Z,17.40
2017-10-22T09:33:47.188Z,17.50
2017-10-22T09:34:53.303Z,17.51
2017-10-22T09:35:59.266Z,17.25
2017-10-22T09:37:05.337Z,17.16
2017-10-22T09:38:10.996Z,17.08
2017-10-22T09:39:16.568Z,17.04
2017-10-22T09:40:22.362Z,17.07
2017-10-22T09:41:28.706Z,17.02
2017-10-22T09:42:35.445Z,17.23
2017-10-22T09:43:41.377Z,17.16
2017-10-22T09:44:48.474Z,17.16
2017-10-22T09:45:55.338Z,16.98
2017-10-22T09:47:02.125Z,17.10
2017-10-22T09:48:08.911Z,17.09
2017-10-22T09:49:14.963Z,17.06
2017-10-22T09:50:21.524Z,16.91
2017-10-22T09:51:27.627Z,16.82
2017-10-22T09:52:32.970Z,16.73
2017-10-22T09:53:39.972Z,16.68
2017-10-22T09:54:46.037Z,16.51
2017-10-22T09:55:51.554Z,16.78
2017-10-22T09:56:57.367Z,16.51
2017-10-22T09:58:03.876Z,16.48
2017-10-22T09:59:09.487Z,16.60
2017-10-22T10:00:15.442Z,16.79
2017-10-22T10:01:21.694Z,16.92
2017-10-22T10:02:27.784Z,16.83
2017-10-22T10:03:35.018Z,16.82
2017-10-22T10:04:40.812Z,16.92
2017-10-22T10:05:47.940Z,16.95
2017-10-22T10:06:54.747Z,17.20
2017-10-22T10:08:00.851Z,17.09
2017-10-22T10:09:06.289Z,17.12
2017-10-22T10:10:12.232Z,17.05
2017-10-22T10:11:18.484Z,16.88
2017-10-22T10:12:24.221Z,16.92
2017-10-22T10:13:30.374Z,16.97
2017-10-22T10:14:36.530Z,16.97
2017-10-22T10:15:42.164Z,16.95
2017-10-22T10:16:48.254Z,16.80
2017-10-22T10:17:54.284Z,16.77
2017-10-22T10:19:00.055Z,16.80
2017-10-22T10:20:06.725Z,16.76
2017-10-22T10:21:14.252Z,16.75
2017-10-22T10:22:20.068Z,16.66
2017-10-22T10:23:26.439Z,16.70
2017-10-22T10:24:31.879Z,16.54
2017-10-22T10:25:37.878Z,16.39
2017-10-22T10:26:43.664Z,16.40
2017-10-22T10:27:50.069Z,16.47
2017-10-22T10:28:56.028Z,16.42
2017-10-22T10:30:01.719Z,16.40
2017-10-22T10:31:08.514Z,16.34
2017-10-22T10:32:15.761Z,16.31
2017-10-22T10:33:21.908Z,16.25
2017-10-22T10:34:28.367Z,16.14
2017-10-22T10:35:34.471Z,16.20
2017-10-22T10:36:40.325Z,16.09
2017-10-22T10:37:47.387Z,16.01
2017-10-22T10:38:53.377Z,15.94
2017-10-22T10:40:00.404Z,15.96
2017-10-22T10:41:06.065Z,16.00
2017-10-22T10:42:12.374Z,15.95
2017-10-22T10:43:19.567Z,15.85
2017-10-22T10:44:25.575Z,15.76
2017-10-22T10:45:32.861Z,15.68
2017-10-22T10:46:39.094Z,15.68
2017-10-22T10:47:45.352Z,15.68
2017-10-22T10:48:52.527Z,15.66
2017-10-22T10:49:58.766Z,15.66
2017-10-22T10:51:05.202Z,15.68
2017-10-22T10:52:11.965Z,15.62
2017-10-22T10:53:19.685Z,15.51
2017-10-22T10:54:25.839Z,15.53
2017-10-22T10:55:31.888Z,15.52
2017-10-22T10:56:38.137Z,15.40
2017-10-22T10:57:44.243Z,15.35
2017-10-22T10:58:51.314Z,15.43
2017-10-22T10:59:57.618Z,15.43
2017-10-22T11:01:03.053Z,15.35
2017-10-22T11:02:09.277Z,15.35
2017-10-22T11:03:15.510Z,15.32
2017-10-22T11:04:21.440Z,15.33
2017-10-22T11:05:27.553Z,15.37
2017-10-22T11:06:33.402Z,15.37
2017-10-22T11:07:39.722Z,15.40
2017-10-22T11:08:46.849Z,15.33
2017-10-22T11:09:52.901Z,15.36
2017-10-22T11:10:58.393Z,15.44
2017-10-22T11:12:04.111Z,15.47
2017-10-22T11:13:09.890Z,15.48
2017-10-22T11:14:15.587Z,15.52
2017-10-22T11:15:22.597Z,15.58
2017-10-22T11:16:28.849Z,15.50
2017-10-22T11:17:34.879Z,15.45
2017-10-22T11:18:40.866Z,15.35
2017-10-22T11:19:47.107Z,15.33
2017-10-22T11:20:53.147Z,15.22
2017-10-22T11:21:59.399Z,15.30
2017-10-22T11:23:06.274Z,15.39
2017-10-22T11:24:12.317Z,15.30
2017-10-22T11:25:18.978Z,15.27
2017-10-22T11:26:25.030Z,15.34
2017-10-22T11:27:31.168Z,15.32
2017-10-22T11:28:37.326Z,15.33
2017-10-22T11:29:43.819Z,15.39
2017-10-22T11:30:50.700Z,15.46
2017-10-22T11:31:57.593Z,15.50
2017-10-22T11:33:05.433Z,15.34
2017-10-22T11:34:12.585Z,15.30
2017-10-22T11:35:18.736Z,15.35
2017-10-22T11:36:26.220Z,15.42
2017-10-22T11:37:33.396Z,15.48
2017-10-22T11:38:39.599Z,15.39
2017-10-22T11:39:46.493Z,15.41
2017-10-22T11:40:52.673Z,15.40
2017-10-22T11:41:58.817Z,15.25
2017-10-22T11:43:05.358Z,15.23
2017-10-22T11:44:11.479Z,15.37
2017-10-22T11:45:18.325Z,15.52
2017-10-22T11:46:24.496Z,15.49
2017-10-22T11:47:31.826Z,15.57
2017-10-22T11:48:38.003Z,15.49
2017-10-22T11:49:45.517Z,15.59
2017-10-22T11:50:52.616Z,15.78
2017-10-22T11:51:58.889Z,15.76
2017-10-22T11:53:05.749Z,15.72
2017-10-22T11:54:11.811Z,15.75
2017-10-22T11:55:18.769Z,15.82
2017-10-22T11:56:24.920Z,15.90
2017-10-22T11:57:31.094Z,15.85
2017-10-22T11:58:37.176Z,15.84
2017-10-22T11:59:44.813Z,15.85
2017-10-22T12:00:51.076Z,15.94
2017-10-22T12:01:58.483Z,15.97
2017-10-22T12:03:05.158Z,15.89
2017-10-22T12:04:12.082Z,15.80
2017-10-22T12:05:18.629Z,15.74
2017-10-22T12:06:27.035Z,15.73
2017-10-22T12:07:33.696Z,15.84
2017-10-22T12:08:40.188Z,15.80
2017-10-22T12:09:46.036Z,15.70
2017-10-22T12:10:52.361Z,15.65
2017-10-22T12:11:58.708Z,15.70
2017-10-22T12:13:04.780Z,15.69
2017-10-22T12:14:10.531Z,15.81
2017-10-22T12:15:16.722Z,15.90
2017-10-22T12:16:23.619Z,15.84
2017-10-22T12:17:29.770Z,15.73
2017-10-22T12:18:36.534Z,15.78
2017-10-22T12:19:42.789Z,15.61
2017-10-22T12:20:49.858Z,15.57
2017-10-22T12:21:56.065Z,15.52
2017-10-22T12:23:03.083Z,15.60
2017-10-22T12:24:09.241Z,15.50
2017-10-22T12:25:17.207Z,15.56
2017-10-22T12:26:23.598Z,15.55
2017-10-22T12:27:29.623Z,15.50
2017-10-22T12:28:35.668Z,15.42
2017-10-22T12:29:41.993Z,15.30
2017-10-22T12:30:48.902Z,15.29
2017-10-22T12:31:56.210Z,15.40
2017-10-22T12:33:02.404Z,15.20
2017-10-22T12:34:08.696Z,15.16
2017-10-22T12:35:14.903Z,15.37
2017-10-22T12:36:21.934Z,15.30
2017-10-22T12:37:29.140Z,15.33
2017-10-22T12:38:36.322Z,15.35
2017-10-22T12:39:43.534Z,15.39
2017-10-22T12:40:49.901Z,15.42
2017-10-22T12:41:56.169Z,15.37
2017-10-22T12:43:02.974Z,15.40
2017-10-22T12:44:08.854Z,15.47
2017-10-22T12:45:15.116Z,15.37
2017-10-22T12:46:21.249Z,15.26
2017-10-22T12:47:27.200Z,15.18
2017-10-22T12:48:33.354Z,15.21
2017-10-22T12:49:39.205Z,15.23
2017-10-22T12:50:45.418Z,15.23
2017-10-22T12:51:52.321Z,15.22
2017-10-22T12:52:59.358Z,15.29
2017-10-22T12:54:06.331Z,15.37
2017-10-22T12:55:12.422Z,15.07
2017-10-22T12:56:19.022Z,14.97
2017-10-22T12:57:25.992Z,15.03
2017-10-22T12:58:33.934Z,15.11
2017-10-22T12:59:40.544Z,15.14
2017-10-22T13:00:46.669Z,15.30
2017-10-22T13:01:52.907Z,15.34
2017-10-22T13:02:59.871Z,15.21
2017-10-22T13:04:06.444Z,15.18
2017-10-22T13:05:13.592Z,15.16
2017-10-22T13:06:19.733Z,15.19
2017-10-22T13:07:25.881Z,15.21
2017-10-22T13:08:32.161Z,15.22
2017-10-22T13:09:38.515Z,15.25
2017-10-22T13:10:44.644Z,15.31
2017-10-22T13:11:51.635Z,15.22
2017-10-22T13:12:57.905Z,15.27
2017-10-22T13:14:05.983Z,15.28
2017-10-22T13:15:12.338Z,15.31
2017-10-22T13:16:18.547Z,15.28
2017-10-22T13:17:25.882Z,15.21
2017-10-22T13:18:32.230Z,15.11
2017-10-22T13:19:39.294Z,15.10
2017-10-22T13:20:45.779Z,15.19
2017-10-22T13:21:52.084Z,15.21
2017-10-22T13:22:58.257Z,15.25
2017-10-22T13:24:04.656Z,15.21
2017-10-22T13:25:10.663Z,15.52
2017-10-22T13:26:16.766Z,15.36
2017-10-22T13:27:23.681Z,15.30
2017-10-22T13:28:30.032Z,15.13
2017-10-22T13:29:36.294Z,15.23
2017-10-22T13:30:42.544Z,15.31
2017-10-22T13:31:48.679Z,15.29
2017-10-22T13:32:55.563Z,15.36
2017-10-22T13:34:01.967Z,15.36
2017-10-22T13:35:08.831Z,15.37
2017-10-22T13:36:15.048Z,15.13
2017-10-22T13:37:20.851Z,15.07
2017-10-22T13:38:27.295Z,14.98
2017-10-22T13:39:34.788Z,15.02
2017-10-22T13:40:41.761Z,14.99
2017-10-22T13:41:48.179Z,14.90
2017-10-22T13:42:54.297Z,14.96
2017-10-22T13:44:00.374Z,15.01
2017-10-22T13:45:07.708Z,15.02
2017-10-22T13:46:15.439Z,15.02
2017-10-22T13:47:23.007Z,15.01
2017-10-22T13:48:29.153Z,15.03
2017-10-22T13:49:35.199Z,15.12
2017-10-22T13:50:41.227Z,15.13
2017-10-22T13:51:47.603Z,15.04
2017-10-22T13:52:53.766Z,15.04
2017-10-22T13:54:01.028Z,15.00
2017-10-22T13:55:08.498Z,15.09
2017-10-22T13:56:15.311Z,15.14
2017-10-22T13:57:21.731Z,15.17
2017-10-22T13:58:28.116Z,15.18
2017-10-22T13:59:34.156Z,15.21
2017-10-22T14:00:40.184Z,15.11
2017-10-22T14:01:47.610Z,15.15
2017-10-22T14:02:53.746Z,15.11
2017-10-22T14:04:00.161Z,15.07
2017-10-22T14:05:06.484Z,15.03
2017-10-22T14:06:13.118Z,15.02
2017-10-22T14:07:19.988Z,15.06
2017-10-22T14:08:26.311Z,15.00
2017-10-22T14:09:32.300Z,15.05
2017-10-22T14:10:38.638Z,14.96